CheckWX is a tool to help pilots better visualize weather data.  It is not intended as a substitute for an official pre-flight weather briefing.

23:47:07 UTC

UAOO TAF
Kzyl-Orda Southwest Airport
Kzyl-Orda, Kazakhstan
TAF UAOO 222300Z 2300/2309 03003MPS CAVOK TEMPO 2303/2309 VRB01MPS

Oct-23@
00:00 UTC

Oct-23 @ 00:00 UTC

Oct-23@
09:00 UTC

Oct-23 @ 09:00 UTC

TAF UAOO 222300Z 2300/2309 03003MPS CAVOK
Wind
  • 030° at 6 KTS
Conditions
No significant weather
Cloud Levels
  • No significant clouds

Oct-23@
03:00 UTC

Oct-23 @ 03:00 UTC

Oct-23@
09:00 UTC

Oct-23 @ 09:00 UTC

TEMPO 2303/2309 VRB01MPS

Temporary

Temporary Changes expected for less than half the time period

Wind
  • Variable at 2 KTS